createdAt,value
2022-09-17T00:00:44.701Z,4.85
2022-09-17T00:03:11.432Z,4.60
2022-09-17T00:05:38.185Z,3.47
2022-09-17T00:08:06.300Z,2.80
2022-09-17T00:10:35.634Z,6.22
2022-09-17T00:13:02.295Z,4.80
2022-09-17T00:15:29.245Z,5.93
2022-09-17T00:17:57.964Z,4.50
2022-09-17T00:20:26.265Z,6.40
2022-09-17T00:22:53.971Z,8.77
2022-09-17T00:25:21.034Z,7.00
2022-09-17T00:27:47.750Z,5.03
2022-09-17T00:30:14.489Z,5.32
2022-09-17T00:32:41.201Z,4.65
2022-09-17T00:35:08.155Z,4.65
2022-09-17T00:37:34.828Z,5.80
2022-09-17T00:40:01.792Z,4.30
2022-09-17T00:42:28.544Z,4.25
2022-09-17T00:44:57.098Z,4.28
2022-09-17T00:47:33.740Z,6.28
2022-09-17T00:50:07.288Z,5.82
2022-09-17T00:52:41.884Z,5.55
2022-09-17T00:55:22.154Z,3.85
2022-09-17T00:57:51.772Z,4.25
2022-09-17T01:00:19.084Z,9.13
2022-09-17T01:02:45.744Z,7.03
2022-09-17T01:05:12.940Z,5.35
2022-09-17T01:08:01.375Z,4.25
2022-09-17T01:10:50.348Z,4.00
2022-09-17T01:13:57.709Z,5.28
2022-09-17T01:16:49.006Z,7.72
2022-09-17T01:19:21.402Z,5.88
2022-09-17T01:22:13.001Z,4.97
2022-09-17T01:24:50.506Z,2.40
2022-09-17T01:27:45.661Z,5.68
2022-09-17T01:30:17.550Z,7.57
2022-09-17T01:32:59.480Z,5.88
2022-09-17T01:35:43.389Z,6.13
2022-09-17T01:38:15.816Z,4.75
2022-09-17T01:40:47.815Z,4.90
2022-09-17T01:43:27.745Z,6.78
2022-09-17T01:45:59.437Z,5.75
2022-09-17T01:48:29.738Z,4.90
2022-09-17T01:51:08.963Z,4.60
2022-09-17T01:53:41.277Z,9.00
2022-09-17T01:56:10.554Z,10.23
2022-09-17T01:58:42.794Z,8.43
2022-09-17T02:01:11.104Z,8.38
2022-09-17T02:03:42.441Z,6.30
2022-09-17T02:06:14.920Z,6.57
2022-09-17T02:09:02.919Z,8.98
2022-09-17T02:11:29.576Z,7.95
2022-09-17T02:14:10.364Z,13.95
2022-09-17T02:16:39.720Z,6.60
2022-09-17T02:19:10.558Z,9.68
2022-09-17T02:21:58.350Z,5.78
2022-09-17T02:24:27.369Z,3.88
2022-09-17T02:27:03.047Z,9.77
2022-09-17T02:29:34.992Z,6.25
2022-09-17T02:32:02.021Z,8.50
2022-09-17T02:34:29.487Z,11.70
2022-09-17T02:36:58.437Z,3.30
2022-09-17T02:39:25.685Z,6.10
2022-09-17T02:42:10.869Z,5.30
2022-09-17T02:47:46.492Z,7.57
2022-09-17T02:50:38.292Z,6.15
2022-09-17T02:53:05.149Z,4.70
2022-09-17T02:55:43.078Z,10.07
2022-09-17T02:58:32.677Z,6.70
2022-09-17T03:01:04.941Z,4.75
2022-09-17T03:03:38.108Z,16.02
2022-09-17T03:06:05.796Z,5.78
2022-09-17T03:08:35.046Z,7.43
2022-09-17T03:11:01.725Z,6.65
2022-09-17T03:13:28.725Z,6.65
2022-09-17T03:15:55.579Z,6.28
2022-09-17T03:18:22.270Z,9.20
2022-09-17T03:20:48.906Z,12.32
2022-09-17T03:23:16.260Z,7.70
2022-09-17T03:25:42.908Z,10.85
2022-09-17T03:28:09.647Z,10.32
2022-09-17T03:30:36.295Z,11.00
2022-09-17T03:33:03.031Z,11.13
2022-09-17T03:35:29.669Z,8.45
2022-09-17T03:37:56.355Z,7.57
2022-09-17T03:40:23.082Z,8.18
2022-09-17T03:42:49.755Z,6.60
2022-09-17T03:45:16.512Z,8.85
2022-09-17T03:47:43.238Z,15.60
2022-09-17T03:50:09.998Z,6.97
2022-09-17T03:52:36.790Z,9.88
2022-09-17T03:55:04.022Z,9.32
2022-09-17T03:57:30.904Z,10.60
2022-09-17T03:59:57.639Z,8.80
2022-09-17T04:02:24.471Z,5.45
2022-09-17T04:04:54.021Z,9.50
2022-09-17T04:07:20.865Z,5.57
2022-09-17T04:09:47.519Z,7.65
2022-09-17T04:12:14.227Z,10.95
2022-09-17T04:14:40.867Z,9.82
2022-09-17T04:17:07.522Z,6.88
2022-09-17T04:19:34.160Z,13.18
2022-09-17T04:22:00.873Z,9.20
2022-09-17T04:24:27.729Z,11.02
2022-09-17T04:26:54.381Z,5.82
2022-09-17T04:29:21.029Z,9.57
2022-09-17T04:31:47.742Z,10.77
2022-09-17T04:34:14.440Z,12.40
2022-09-17T04:36:41.147Z,8.93
2022-09-17T04:39:09.209Z,8.50
2022-09-17T04:41:35.852Z,4.47
2022-09-17T04:44:02.615Z,6.60
2022-09-17T04:46:30.114Z,7.15
2022-09-17T04:48:56.900Z,13.68
2022-09-17T04:51:23.548Z,12.65
2022-09-17T04:53:50.165Z,10.15
2022-09-17T04:56:16.816Z,15.32
2022-09-17T04:58:43.520Z,6.38
2022-09-17T05:01:10.191Z,10.32
2022-09-17T05:03:36.924Z,9.05
2022-09-17T05:06:03.813Z,10.10
2022-09-17T05:08:30.638Z,7.95
2022-09-17T05:10:57.626Z,10.48
2022-09-17T05:13:24.324Z,11.20
2022-09-17T05:15:51.227Z,9.15
2022-09-17T05:18:18.030Z,8.05
2022-09-17T05:20:44.774Z,8.32
2022-09-17T05:23:11.411Z,8.48
2022-09-17T05:25:38.047Z,11.13
2022-09-17T05:28:05.828Z,10.75
2022-09-17T05:30:32.585Z,7.97
2022-09-17T05:33:01.100Z,9.50
2022-09-17T05:35:27.927Z,14.45
2022-09-17T05:38:02.034Z,12.10
2022-09-17T05:40:29.163Z,7.30
2022-09-17T05:42:59.956Z,9.95
2022-09-17T05:45:26.718Z,9.75
2022-09-17T05:48:00.573Z,16.70
2022-09-17T05:50:28.524Z,12.20
2022-09-17T05:52:55.606Z,11.25
2022-09-17T05:55:23.720Z,7.68
2022-09-17T05:57:51.109Z,14.85
2022-09-17T06:00:18.773Z,7.65
2022-09-17T06:02:45.530Z,11.43
2022-09-17T06:05:12.237Z,9.40
2022-09-17T06:07:39.210Z,9.57
2022-09-17T06:10:08.221Z,15.93
2022-09-17T06:12:35.606Z,13.65
2022-09-17T06:15:03.888Z,10.10
2022-09-17T06:17:36.362Z,9.18
2022-09-17T06:20:05.150Z,10.57
2022-09-17T06:22:31.877Z,10.80
2022-09-17T06:24:59.791Z,14.02
2022-09-17T06:27:32.199Z,8.30
2022-09-17T06:29:59.157Z,11.60
2022-09-17T06:32:25.897Z,14.52
2022-09-17T06:34:52.734Z,11.65
2022-09-17T06:37:19.582Z,13.15
2022-09-17T06:39:46.377Z,16.80
2022-09-17T06:42:13.026Z,13.93
2022-09-17T06:44:40.881Z,10.65
2022-09-17T06:47:07.972Z,11.95
2022-09-17T06:49:34.773Z,9.63
2022-09-17T06:52:01.694Z,7.82
2022-09-17T06:54:28.345Z,11.38
2022-09-17T06:56:55.038Z,13.18
2022-09-17T06:59:21.735Z,9.57
2022-09-17T07:01:48.491Z,8.70
2022-09-17T07:04:17.394Z,11.07
2022-09-17T07:06:44.783Z,11.25
2022-09-17T07:09:12.181Z,11.52
2022-09-17T07:11:39.399Z,8.90
2022-09-17T07:14:06.936Z,14.63
2022-09-17T07:16:35.183Z,12.73
2022-09-17T07:19:03.630Z,14.48
2022-09-17T07:21:30.437Z,12.45
2022-09-17T07:23:57.241Z,14.25
2022-09-17T07:26:23.998Z,15.23
2022-09-17T07:28:50.635Z,14.88
2022-09-17T07:31:17.447Z,14.07
2022-09-17T07:33:44.864Z,25.17
2022-09-17T07:36:13.581Z,17.80
2022-09-17T07:38:40.298Z,21.02
2022-09-17T07:41:14.686Z,11.75
2022-09-17T07:43:42.111Z,19.23
2022-09-17T07:46:16.015Z,17.08
2022-09-17T07:48:42.809Z,16.87
2022-09-17T07:51:15.700Z,17.02
2022-09-17T07:53:42.436Z,13.18
2022-09-17T07:56:11.785Z,18.20
2022-09-17T07:58:38.827Z,15.65
2022-09-17T08:01:11.423Z,15.73
2022-09-17T08:03:39.827Z,18.83
2022-09-17T08:06:12.020Z,17.80
2022-09-17T08:08:39.655Z,17.33
2022-09-17T08:11:18.129Z,19.92
2022-09-17T08:13:52.091Z,16.50
2022-09-17T08:16:20.251Z,18.25
2022-09-17T08:18:47.887Z,15.38
2022-09-17T08:21:17.756Z,15.60
2022-09-17T08:23:45.599Z,12.50
2022-09-17T08:26:14.625Z,18.65
2022-09-17T08:28:57.434Z,10.80
2022-09-17T08:31:30.389Z,15.45
2022-09-17T08:33:57.396Z,11.25
2022-09-17T08:36:26.324Z,16.00
2022-09-17T08:38:54.432Z,14.73
2022-09-17T08:41:24.425Z,16.75
2022-09-17T08:44:15.247Z,14.85
2022-09-17T08:46:48.107Z,12.85
2022-09-17T08:49:33.858Z,17.08
2022-09-17T08:52:09.979Z,10.30
2022-09-17T08:54:39.279Z,13.68
2022-09-17T08:57:24.934Z,11.95
2022-09-17T09:00:02.074Z,12.68
2022-09-17T09:02:49.538Z,7.03
2022-09-17T09:05:19.883Z,12.38
2022-09-17T09:07:51.340Z,10.43
2022-09-17T09:10:27.895Z,14.50
2022-09-17T09:12:55.957Z,9.73
2022-09-17T09:15:42.239Z,10.30
2022-09-17T09:18:23.965Z,8.50
2022-09-17T09:20:51.736Z,14.82
2022-09-17T09:23:52.155Z,11.68
2022-09-17T09:26:23.860Z,9.55
2022-09-17T09:29:04.347Z,7.50
2022-09-17T09:32:09.368Z,14.77
2022-09-17T09:34:42.635Z,18.80
2022-09-17T09:37:14.706Z,12.75
2022-09-17T09:39:45.919Z,17.80
2022-09-17T09:42:36.626Z,13.00
2022-09-17T09:45:13.703Z,8.95
2022-09-17T09:48:05.465Z,5.30
2022-09-17T09:50:54.724Z,8.77
2022-09-17T09:53:54.880Z,7.07
2022-09-17T09:56:24.434Z,7.88
2022-09-17T09:58:51.157Z,10.95
2022-09-17T10:01:20.639Z,7.43
2022-09-17T10:03:48.688Z,7.15
2022-09-17T10:06:16.874Z,6.35
2022-09-17T10:09:03.878Z,8.20
2022-09-17T10:11:35.571Z,5.05
2022-09-17T10:14:16.568Z,7.72
2022-09-17T10:16:43.319Z,6.50
2022-09-17T10:19:09.910Z,11.82
2022-09-17T10:21:42.343Z,12.90
2022-09-17T10:24:25.318Z,7.80
2022-09-17T10:26:53.139Z,7.07
2022-09-17T10:29:21.045Z,4.65
2022-09-17T10:31:58.142Z,6.45
2022-09-17T10:34:26.960Z,8.25
2022-09-17T10:36:56.036Z,11.10
2022-09-17T10:39:44.454Z,9.48
2022-09-17T10:42:18.919Z,7.82
2022-09-17T10:44:56.849Z,7.90
2022-09-17T10:47:37.505Z,6.22
2022-09-17T10:50:07.935Z,9.20
2022-09-17T10:52:42.213Z,7.78
2022-09-17T10:55:34.983Z,6.50
2022-09-17T10:58:09.125Z,5.65
2022-09-17T11:00:44.322Z,11.35
2022-09-17T11:03:38.487Z,2.63
2022-09-17T11:06:39.978Z,4.20
2022-09-17T11:09:22.591Z,7.10
2022-09-17T11:12:10.507Z,6.97
2022-09-17T11:14:52.226Z,5.53
2022-09-17T11:17:37.486Z,3.15
2022-09-17T11:20:12.356Z,4.63
2022-09-17T11:23:01.605Z,4.75
2022-09-17T11:25:34.378Z,7.70
2022-09-17T11:28:24.487Z,3.70
2022-09-17T11:31:00.833Z,4.75
2022-09-17T11:34:05.934Z,3.72
2022-09-17T11:36:53.354Z,6.28
2022-09-17T11:39:49.693Z,4.53
2022-09-17T11:42:30.872Z,6.20
2022-09-17T11:45:18.851Z,5.68
2022-09-17T11:47:53.946Z,7.50
2022-09-17T11:50:25.106Z,7.82
2022-09-17T11:53:23.461Z,7.22
2022-09-17T11:56:00.337Z,6.18
2022-09-17T11:58:48.227Z,5.78
2022-09-17T12:01:38.983Z,9.40
2022-09-17T12:04:32.370Z,5.22
2022-09-17T12:07:41.547Z,4.25
2022-09-17T12:13:48.445Z,5.00
2022-09-17T12:16:24.164Z,3.35
2022-09-17T12:19:04.219Z,5.72
2022-09-17T12:21:42.454Z,5.50
2022-09-17T12:24:30.056Z,6.95
2022-09-17T12:27:21.951Z,8.50
2022-09-17T12:29:58.217Z,4.20
2022-09-17T12:32:54.324Z,5.97
2022-09-17T12:36:03.093Z,2.50
2022-09-17T12:38:49.872Z,5.03
2022-09-17T12:41:21.019Z,5.80
2022-09-17T12:47:10.719Z,6.55
2022-09-17T12:49:56.236Z,7.18
2022-09-17T12:52:54.099Z,16.05
2022-09-17T12:55:43.472Z,9.55
2022-09-17T12:58:44.390Z,13.27
2022-09-17T13:01:28.511Z,5.15
2022-09-17T13:04:20.568Z,3.47
2022-09-17T13:06:56.550Z,4.07
2022-09-17T13:10:23.509Z,6.25
2022-09-17T13:12:57.515Z,5.95
2022-09-17T13:15:43.953Z,10.07
2022-09-17T13:18:26.529Z,3.92
2022-09-17T13:21:05.545Z,5.55
2022-09-17T13:23:42.075Z,4.35
2022-09-17T13:26:19.334Z,3.78
2022-09-17T13:28:48.881Z,4.90
2022-09-17T13:31:34.443Z,2.70
2022-09-17T13:34:02.754Z,5.15
2022-09-17T13:36:46.216Z,3.53
2022-09-17T13:39:31.843Z,4.50
2022-09-17T13:42:27.765Z,2.17
2022-09-17T13:45:18.835Z,8.93
2022-09-17T13:48:08.430Z,2.95
2022-09-17T13:50:35.886Z,4.28
2022-09-17T13:53:17.863Z,5.10
2022-09-17T13:55:48.242Z,7.10
2022-09-17T13:58:21.512Z,3.08
2022-09-17T14:00:51.463Z,3.95
2022-09-17T14:03:53.859Z,6.85
2022-09-17T14:06:24.634Z,4.40
2022-09-17T14:08:54.552Z,6.32
2022-09-17T14:11:28.413Z,6.60
2022-09-17T14:14:04.226Z,5.40
2022-09-17T14:16:36.900Z,4.63
2022-09-17T14:19:33.473Z,4.25
2022-09-17T14:22:06.476Z,6.18
2022-09-17T14:24:42.938Z,3.53
2022-09-17T14:27:50.982Z,4.05
2022-09-17T14:30:31.727Z,5.50
2022-09-17T14:33:08.402Z,4.50
2022-09-17T14:35:46.033Z,3.83
2022-09-17T14:38:32.149Z,6.55
2022-09-17T14:41:11.182Z,9.02
2022-09-17T14:44:02.864Z,7.07
2022-09-17T14:46:44.208Z,4.88
2022-09-17T14:49:26.350Z,3.78
2022-09-17T14:51:54.412Z,6.15
2022-09-17T14:54:23.404Z,7.07
2022-09-17T14:56:53.494Z,6.78
2022-09-17T15:00:01.529Z,8.63
2022-09-17T15:02:34.414Z,5.15
2022-09-17T15:05:03.795Z,7.25
2022-09-17T15:07:30.488Z,12.73
2022-09-17T15:10:12.927Z,8.05
2022-09-17T15:12:39.785Z,6.30
2022-09-17T15:15:10.048Z,6.15
2022-09-17T15:17:37.073Z,6.35
2022-09-17T15:20:07.745Z,7.18
2022-09-17T15:22:37.842Z,8.40
2022-09-17T15:25:10.599Z,7.88
2022-09-17T15:27:42.834Z,7.13
2022-09-17T15:30:24.127Z,5.43
2022-09-17T15:32:58.970Z,7.72
2022-09-17T15:35:44.573Z,8.10
2022-09-17T15:38:26.226Z,5.70
2022-09-17T15:40:53.144Z,5.13
2022-09-17T15:43:30.951Z,8.82
2022-09-17T15:46:01.514Z,5.03
2022-09-17T15:48:28.137Z,9.02
2022-09-17T15:50:59.457Z,5.55
2022-09-17T15:53:31.033Z,9.75
2022-09-17T15:56:06.764Z,3.03
2022-09-17T15:58:42.782Z,6.75
2022-09-17T16:01:15.614Z,5.38
2022-09-17T16:03:43.428Z,6.43
2022-09-17T16:06:19.310Z,5.35
2022-09-17T16:08:56.915Z,11.60
2022-09-17T16:11:25.322Z,6.72
2022-09-17T16:13:53.975Z,9.55
2022-09-17T16:16:31.160Z,5.40
2022-09-17T16:18:58.225Z,5.15
2022-09-17T16:21:25.191Z,5.45
2022-09-17T16:23:53.977Z,2.55
2022-09-17T16:26:23.785Z,8.00
2022-09-17T16:28:55.845Z,5.03
2022-09-17T16:31:22.753Z,11.30
2022-09-17T16:33:50.011Z,7.78
2022-09-17T16:36:17.407Z,3.13
2022-09-17T16:38:44.073Z,7.47
2022-09-17T16:41:11.481Z,6.43
2022-09-17T16:43:40.136Z,5.82
2022-09-17T16:46:08.766Z,8.35
2022-09-17T16:48:35.537Z,8.70
2022-09-17T16:51:07.651Z,5.57
2022-09-17T16:53:34.786Z,11.23
2022-09-17T16:56:05.049Z,4.68
2022-09-17T16:58:31.735Z,6.40
2022-09-17T17:00:58.741Z,4.18
2022-09-17T17:03:25.782Z,5.93
2022-09-17T17:05:52.434Z,4.03
2022-09-17T17:08:19.224Z,6.22
2022-09-17T17:10:50.016Z,4.03
2022-09-17T17:13:16.846Z,2.22
2022-09-17T17:15:46.535Z,6.65
2022-09-17T17:18:13.431Z,2.63
2022-09-17T17:20:40.085Z,4.78
2022-09-17T17:23:06.826Z,7.93
2022-09-17T17:25:33.566Z,3.03
2022-09-17T17:28:00.331Z,3.85
2022-09-17T17:30:31.726Z,9.90
2022-09-17T17:33:03.821Z,5.67
2022-09-17T17:35:30.768Z,5.93
2022-09-17T17:37:57.444Z,4.65
2022-09-17T17:40:24.166Z,5.22
2022-09-17T17:42:54.713Z,8.57
2022-09-17T17:45:21.848Z,9.73
2022-09-17T17:47:48.814Z,7.07
2022-09-17T17:50:15.868Z,4.00
2022-09-17T17:52:47.800Z,3.47
2022-09-17T17:55:15.966Z,6.85
2022-09-17T17:57:42.711Z,3.92
2022-09-17T18:00:11.797Z,4.97
2022-09-17T18:02:39.062Z,5.80
2022-09-17T18:05:06.184Z,7.70
2022-09-17T18:07:33.536Z,6.15
2022-09-17T18:10:00.334Z,5.95
2022-09-17T18:12:27.316Z,1.73
2022-09-17T18:14:54.245Z,2.38
2022-09-17T18:17:21.184Z,4.82
2022-09-17T18:19:47.821Z,2.10
2022-09-17T18:22:14.471Z,3.35
2022-09-17T18:24:41.122Z,4.35
2022-09-17T18:27:07.922Z,7.10
2022-09-17T18:29:34.695Z,3.35
2022-09-17T18:32:01.650Z,3.85
2022-09-17T18:34:28.400Z,1.98
2022-09-17T18:36:55.321Z,5.97
2022-09-17T18:42:11.755Z,3.97
2022-09-17T18:44:38.365Z,4.43
2022-09-17T18:47:11.821Z,3.58
2022-09-17T18:49:39.109Z,4.13
2022-09-17T18:52:05.786Z,4.90
2022-09-17T18:54:32.562Z,6.38
2022-09-17T18:56:59.211Z,26.52
2022-09-17T18:59:25.927Z,4.60
2022-09-17T19:01:52.632Z,7.85
2022-09-17T19:04:19.330Z,6.65
2022-09-17T19:06:46.168Z,6.60
2022-09-17T19:09:14.951Z,6.25
2022-09-17T19:11:45.019Z,6.47
2022-09-17T19:14:12.568Z,15.32
2022-09-17T19:16:39.446Z,13.23
2022-09-17T19:19:06.543Z,10.60
2022-09-17T19:21:33.261Z,9.82
2022-09-17T19:23:59.992Z,5.53
2022-09-17T19:26:27.320Z,8.68
2022-09-17T19:28:55.529Z,5.80
2022-09-17T19:31:22.442Z,7.55
2022-09-17T19:33:50.493Z,13.43
2022-09-17T19:36:18.453Z,8.18
2022-09-17T19:38:46.000Z,14.20
2022-09-17T19:41:18.395Z,9.85
2022-09-17T19:43:45.680Z,15.90
2022-09-17T19:46:14.718Z,17.38
2022-09-17T19:48:45.947Z,15.85
2022-09-17T19:51:13.034Z,15.45
2022-09-17T19:53:39.747Z,20.48
2022-09-17T19:56:07.393Z,17.20
2022-09-17T19:58:34.033Z,16.73
2022-09-17T20:01:00.641Z,15.18
2022-09-17T20:03:27.731Z,10.27
2022-09-17T20:06:01.730Z,14.25
2022-09-17T20:08:28.882Z,19.50
2022-09-17T20:10:55.847Z,11.50
2022-09-17T20:13:23.186Z,16.58
2022-09-17T20:15:49.953Z,15.77
2022-09-17T20:18:19.921Z,11.70
2022-09-17T20:20:49.987Z,14.57
2022-09-17T20:23:16.637Z,15.30
2022-09-17T20:25:44.588Z,14.68
2022-09-17T20:28:11.253Z,10.13
2022-09-17T20:30:37.868Z,10.50
2022-09-17T20:33:04.514Z,12.80
2022-09-17T20:35:31.143Z,8.88
2022-09-17T20:40:44.439Z,14.65
2022-09-17T20:43:11.271Z,13.13
2022-09-17T20:45:37.897Z,11.55
2022-09-17T20:48:04.572Z,11.75
2022-09-17T20:50:31.222Z,13.38
2022-09-17T20:52:57.858Z,11.18
2022-09-17T20:55:24.562Z,11.80
2022-09-17T20:57:53.743Z,15.00
2022-09-17T21:00:21.466Z,13.52
2022-09-17T21:02:54.107Z,12.30
2022-09-17T21:05:20.745Z,18.77
2022-09-17T21:07:47.568Z,14.02
2022-09-17T21:10:14.311Z,15.43
2022-09-17T21:12:40.970Z,18.02
2022-09-17T21:15:07.982Z,19.75
2022-09-17T21:17:34.667Z,9.63
2022-09-17T21:20:01.940Z,18.52
2022-09-17T21:22:28.665Z,18.95
2022-09-17T21:24:55.283Z,12.15
2022-09-17T21:27:22.082Z,12.07
2022-09-17T21:29:48.683Z,17.02
2022-09-17T21:32:15.338Z,13.38
2022-09-17T21:34:42.033Z,17.42
2022-09-17T21:37:08.643Z,13.13
2022-09-17T21:39:35.627Z,15.43
2022-09-17T21:42:02.430Z,12.38
2022-09-17T21:44:29.140Z,12.32
2022-09-17T21:46:57.748Z,12.32
2022-09-17T21:49:24.954Z,12.02
2022-09-17T21:51:51.656Z,13.75
2022-09-17T21:54:18.835Z,13.35
2022-09-17T21:56:46.418Z,15.13
2022-09-17T21:59:14.710Z,15.52
2022-09-17T22:01:46.053Z,11.45
2022-09-17T22:04:15.537Z,15.18
2022-09-17T22:06:42.382Z,19.73
2022-09-17T22:09:17.481Z,17.35
2022-09-17T22:11:44.265Z,10.52
2022-09-17T22:14:13.563Z,12.23
2022-09-17T22:16:43.193Z,10.40
2022-09-17T22:19:11.434Z,11.90
2022-09-17T22:21:40.641Z,13.60
2022-09-17T22:24:08.254Z,11.90
2022-09-17T22:26:37.791Z,4.97
2022-09-17T22:29:09.472Z,12.68
2022-09-17T22:31:36.683Z,14.10
2022-09-17T22:34:10.868Z,16.48
2022-09-17T22:36:37.837Z,13.82
2022-09-17T22:39:05.221Z,12.50
2022-09-17T22:41:36.031Z,10.00
2022-09-17T22:44:05.000Z,10.80
2022-09-17T22:46:36.881Z,10.65
2022-09-17T22:49:03.610Z,8.57
2022-09-17T22:51:30.835Z,14.43
2022-09-17T22:53:59.224Z,12.02
2022-09-17T22:56:27.364Z,11.77
2022-09-17T22:58:55.495Z,8.55
2022-09-17T23:01:31.075Z,14.35
2022-09-17T23:03:58.820Z,15.57
2022-09-17T23:06:28.046Z,10.57
2022-09-17T23:08:55.230Z,8.63
2022-09-17T23:11:27.626Z,10.88
2022-09-17T23:14:02.024Z,7.88
2022-09-17T23:16:29.469Z,15.70
2022-09-17T23:18:57.142Z,10.93
2022-09-17T23:21:23.871Z,9.02
2022-09-17T23:23:51.136Z,11.95
2022-09-17T23:26:23.785Z,13.98
2022-09-17T23:28:51.078Z,16.77
2022-09-17T23:31:26.009Z,16.05
2022-09-17T23:33:53.188Z,10.23
2022-09-17T23:36:25.514Z,10.20
2022-09-17T23:38:52.747Z,11.38
2022-09-17T23:41:22.286Z,10.98
2022-09-17T23:43:51.284Z,12.07
2022-09-17T23:46:18.841Z,12.13
2022-09-17T23:48:46.094Z,14.20
2022-09-17T23:51:13.240Z,20.15
2022-09-17T23:53:40.445Z,16.45
2022-09-17T23:56:11.880Z,14.52
2022-09-17T23:58:38.833Z,12.23
